createdAt,value
2015-11-11T00:00:10.141Z,731.18
2015-11-11T00:00:23.438Z,731.24
2015-11-11T00:00:36.703Z,731.24
2015-11-11T00:00:49.969Z,730.96
2015-11-11T00:01:03.234Z,730.98
2015-11-11T00:01:16.503Z,731.15
2015-11-11T00:01:29.769Z,731.18
2015-11-11T00:01:43.034Z,731.08
2015-11-11T00:01:56.300Z,731.08
2015-11-11T00:02:09.630Z,730.51
2015-11-11T00:02:22.911Z,731.01
2015-11-11T00:02:36.193Z,731
2015-11-11T00:02:49.443Z,730.88
2015-11-11T00:03:02.739Z,731.09
2015-11-11T00:03:16.008Z,731.12
2015-11-11T00:03:29.274Z,731.1
2015-11-11T00:03:42.555Z,731.02
2015-11-11T00:03:55.852Z,731.01
2015-11-11T00:04:09.167Z,731.02
2015-11-11T00:04:22.464Z,731.07
2015-11-11T00:04:35.745Z,731.03
2015-11-11T00:04:49.011Z,730.99
2015-11-11T00:05:02.292Z,730.91
2015-11-11T00:05:15.577Z,730.99
2015-11-11T00:05:28.858Z,731.06
2015-11-11T00:05:42.139Z,730.92
2015-11-11T00:05:55.436Z,731.14
2015-11-11T00:06:08.702Z,731.05
2015-11-11T00:06:21.969Z,730.93
2015-11-11T00:06:35.235Z,731.14
2015-11-11T00:06:48.516Z,731.25
2015-11-11T00:07:01.813Z,730.76
2015-11-11T00:07:15.128Z,730.95
2015-11-11T00:07:28.425Z,731.09
2015-11-11T00:07:41.785Z,731.1
2015-11-11T00:07:55.066Z,731.04
2015-11-11T00:08:08.332Z,730.94
2015-11-11T00:08:21.599Z,731.15
2015-11-11T00:08:34.865Z,731.01
2015-11-11T00:08:47.990Z,730.88
2015-11-11T00:09:01.271Z,730.74
2015-11-11T00:09:14.556Z,730.84
2015-11-11T00:09:27.838Z,731.15
2015-11-11T00:09:41.134Z,730.78
2015-11-11T00:09:54.447Z,731.25
2015-11-11T00:10:07.791Z,731.33
2015-11-11T00:10:21.215Z,730.88
2015-11-11T00:10:34.480Z,731.14
2015-11-11T00:10:47.761Z,730.9
2015-11-11T00:11:01.043Z,731.11
2015-11-11T00:11:14.340Z,731.12
2015-11-11T00:11:27.655Z,731.15
2015-11-11T00:11:40.936Z,731.14
2015-11-11T00:11:54.280Z,731.12
2015-11-11T00:12:07.530Z,731.14
2015-11-11T00:12:20.799Z,731.12
2015-11-11T00:12:34.064Z,731.01
2015-11-11T00:12:47.330Z,730.77
2015-11-11T00:13:00.596Z,731.16
2015-11-11T00:13:13.861Z,731.11
2015-11-11T00:13:27.129Z,731.17
2015-11-11T00:13:40.426Z,731.08
2015-11-11T00:13:53.738Z,731.18
2015-11-11T00:14:07.051Z,731.11
2015-11-11T00:14:20.382Z,731.09
2015-11-11T00:14:33.647Z,730.96
2015-11-11T00:14:46.913Z,730.93
2015-11-11T00:15:00.179Z,731.04
2015-11-11T00:15:13.460Z,731.18
2015-11-11T00:15:26.791Z,731.13
2015-11-11T00:15:40.057Z,731.14
2015-11-11T00:15:53.369Z,731.14
2015-11-11T00:16:06.666Z,731.1
2015-11-11T00:16:19.979Z,731.16
2015-11-11T00:16:33.277Z,730.86
2015-11-11T00:16:46.559Z,731.01
2015-11-11T00:16:59.824Z,730.91
2015-11-11T00:17:13.090Z,731.35
2015-11-11T00:17:26.375Z,731.23
2015-11-11T00:17:39.641Z,731.11
2015-11-11T00:17:52.922Z,731.15
2015-11-11T00:18:06.219Z,730.93
2015-11-11T00:18:19.500Z,731.02
2015-11-11T00:18:32.830Z,730.69
2015-11-11T00:18:46.096Z,731.04
2015-11-11T00:18:59.377Z,730.87
2015-11-11T00:19:12.658Z,730.82
2015-11-11T00:19:25.927Z,731.13
2015-11-11T00:19:39.224Z,730.94
2015-11-11T00:19:52.505Z,731.19
2015-11-11T00:20:05.833Z,731.3
2015-11-11T00:20:19.146Z,731.14
2015-11-11T00:20:32.633Z,731.1
2015-11-11T00:20:45.899Z,730.35
2015-11-11T00:20:59.180Z,730.97
2015-11-11T00:21:12.446Z,731.1
2015-11-11T00:21:25.727Z,731.17
2015-11-11T00:21:39.011Z,731.08
2015-11-11T00:21:52.308Z,731.01
2015-11-11T00:22:05.621Z,731.08
2015-11-11T00:22:18.933Z,731.05
2015-11-11T00:22:32.249Z,730.86
2015-11-11T00:22:45.514Z,731.04
2015-11-11T00:22:58.780Z,730.99
2015-11-11T00:23:12.061Z,730.77
2015-11-11T00:23:25.327Z,731.22
2015-11-11T00:23:38.610Z,731.1
2015-11-11T00:23:51.876Z,731.08
2015-11-11T00:24:05.172Z,731.08
2015-11-11T00:24:18.454Z,730.86
2015-11-11T00:24:31.768Z,731.09
2015-11-11T00:24:45.081Z,731
2015-11-11T00:24:58.346Z,731.14
2015-11-11T00:25:11.628Z,730.86
2015-11-11T00:25:24.893Z,730.67
2015-11-11T00:25:38.163Z,731.1
2015-11-11T00:25:51.444Z,731.06
2015-11-11T00:26:04.710Z,731.06
2015-11-11T00:26:17.975Z,731.17
2015-11-11T00:26:31.272Z,730.87
2015-11-11T00:26:44.571Z,731.06
2015-11-11T00:26:57.868Z,730.68
2015-11-11T00:27:11.180Z,731.12
2015-11-11T00:27:24.509Z,731.14
2015-11-11T00:27:37.777Z,730.39
2015-11-11T00:27:51.043Z,730.69
2015-11-11T00:28:04.308Z,731.05
2015-11-11T00:28:17.574Z,730.92
2015-11-11T00:28:30.855Z,730.95
2015-11-11T00:28:58.280Z,731.24
2015-11-11T00:29:11.561Z,731.06
2015-11-11T00:29:24.843Z,730.7
2015-11-11T00:29:38.174Z,730.86
2015-11-11T00:29:51.486Z,731.1
2015-11-11T00:30:05.018Z,731
2015-11-11T00:30:18.283Z,731.08
2015-11-11T00:30:31.549Z,730.87
2015-11-11T00:30:44.816Z,731.04
2015-11-11T00:30:58.082Z,730.89
2015-11-11T00:31:11.348Z,730.74
2015-11-11T00:31:24.613Z,731.09
2015-11-11T00:31:37.898Z,730.91
2015-11-11T00:31:51.179Z,730.71
2015-11-11T00:32:04.491Z,731.37
2015-11-11T00:32:17.773Z,730.93
2015-11-11T00:32:31.054Z,731.33
2015-11-11T00:32:44.322Z,731.12
2015-11-11T00:32:57.604Z,731.04
2015-11-11T00:33:10.885Z,730.97
2015-11-11T00:33:24.182Z,730.81
2015-11-11T00:33:37.463Z,731.06
2015-11-11T00:33:50.778Z,730.97
2015-11-11T00:34:04.059Z,730.87
2015-11-11T00:34:17.324Z,731.15
2015-11-11T00:34:30.590Z,731.21
2015-11-11T00:34:43.718Z,730.73
2015-11-11T00:34:56.984Z,731.23
2015-11-11T00:35:10.109Z,730.76
2015-11-11T00:35:23.374Z,730.76
2015-11-11T00:35:36.656Z,731.05
2015-11-11T00:35:49.939Z,731.06
2015-11-11T00:36:03.251Z,730.92
2015-11-11T00:36:16.533Z,730.93
2015-11-11T00:36:29.798Z,730.74
2015-11-11T00:36:43.067Z,731.2
2015-11-11T00:36:56.317Z,731.03
2015-11-11T00:37:09.582Z,730.88
2015-11-11T00:37:22.832Z,731.04
2015-11-11T00:37:36.098Z,731.05
2015-11-11T00:37:49.398Z,731.17
2015-11-11T00:38:02.679Z,730.85
2015-11-11T00:38:15.992Z,731.24
2015-11-11T00:38:29.304Z,731.03
2015-11-11T00:38:42.604Z,730.99
2015-11-11T00:38:55.885Z,730.67
2015-11-11T00:39:09.151Z,731.13
2015-11-11T00:39:22.417Z,730.69
2015-11-11T00:39:35.698Z,730.93
2015-11-11T00:39:48.982Z,730.72
2015-11-11T00:40:02.248Z,730.73
2015-11-11T00:40:15.529Z,730.58
2015-11-11T00:40:28.810Z,731.07
2015-11-11T00:40:42.126Z,730.97
2015-11-11T00:40:55.423Z,731.09
2015-11-11T00:41:08.735Z,730.95
2015-11-11T00:41:22.016Z,731.07
2015-11-11T00:41:35.282Z,731.09
2015-11-11T00:41:48.534Z,730.93
2015-11-11T00:42:01.846Z,730.95
2015-11-11T00:42:15.112Z,730.87
2015-11-11T00:42:28.393Z,730.87
2015-11-11T00:42:41.677Z,730.9
2015-11-11T00:42:54.958Z,731.01
2015-11-11T00:43:08.270Z,731.17
2015-11-11T00:43:21.567Z,730.89
2015-11-11T00:43:34.864Z,730.61
2015-11-11T00:43:48.133Z,731.19
2015-11-11T00:44:01.430Z,731.03
2015-11-11T00:44:14.711Z,730.79
2015-11-11T00:44:27.976Z,730.65
2015-11-11T00:44:41.242Z,730.59
2015-11-11T00:44:54.526Z,730.88
2015-11-11T00:45:07.808Z,730.85
2015-11-11T00:45:21.104Z,730.66
2015-11-11T00:45:34.417Z,731.11
2015-11-11T00:45:47.592Z,731.1
2015-11-11T00:46:00.889Z,731.15
2015-11-11T00:46:14.154Z,731.1
2015-11-11T00:46:27.436Z,730.93
2015-11-11T00:46:40.701Z,731.19
2015-11-11T00:46:54.001Z,730.52
2015-11-11T00:47:07.267Z,730.75
2015-11-11T00:47:20.564Z,731.02
2015-11-11T00:47:33.845Z,731.05
2015-11-11T00:47:47.144Z,730.99
2015-11-11T00:48:00.441Z,730.94
2015-11-11T00:48:13.753Z,731.09
2015-11-11T00:48:27.034Z,731.17
2015-11-11T00:48:40.175Z,730.91
2015-11-11T00:48:53.459Z,731.07
2015-11-11T00:49:06.740Z,730.96
2015-11-11T00:49:20.006Z,730.66
2015-11-11T00:49:33.303Z,731.54
2015-11-11T00:49:46.584Z,731
2015-11-11T00:49:59.884Z,730.89
2015-11-11T00:50:13.197Z,731.13
2015-11-11T00:50:26.509Z,730.81
2015-11-11T00:50:39.822Z,730.88
2015-11-11T00:50:53.089Z,730.8
2015-11-11T00:51:06.355Z,730.86
2015-11-11T00:51:19.480Z,730.88
2015-11-11T00:51:32.761Z,731.04
2015-11-11T00:51:46.042Z,730.68
2015-11-11T00:51:59.327Z,731.05
2015-11-11T00:52:12.608Z,730.85
2015-11-11T00:52:25.905Z,731.11
2015-11-11T00:52:39.202Z,731.01
2015-11-11T00:52:52.533Z,731.1
2015-11-11T00:53:05.830Z,731.09
2015-11-11T00:53:19.126Z,730.94
2015-11-11T00:53:32.392Z,730.87
2015-11-11T00:53:45.689Z,731.01
2015-11-11T00:53:58.973Z,731.17
2015-11-11T00:54:12.239Z,730.8
2015-11-11T00:54:25.504Z,731.05
2015-11-11T00:54:38.786Z,730.99
2015-11-11T00:54:52.067Z,730.79
2015-11-11T00:55:05.382Z,730.96
2015-11-11T00:55:18.695Z,731
2015-11-11T00:55:31.961Z,730.95
2015-11-11T00:55:45.226Z,731.05
2015-11-11T00:55:58.509Z,730.74
2015-11-11T00:56:11.775Z,730.96
2015-11-11T00:56:25.041Z,731.08
2015-11-11T00:56:38.306Z,730.77
2015-11-11T00:56:51.619Z,730.83
2015-11-11T00:57:04.903Z,730.82
2015-11-11T00:57:18.216Z,731.09
2015-11-11T00:57:31.497Z,731
2015-11-11T00:57:44.778Z,731.13
2015-11-11T00:57:58.094Z,731.1
2015-11-11T00:58:11.375Z,730.99
2015-11-11T00:58:24.656Z,730.93
2015-11-11T00:58:37.953Z,730.81
2015-11-11T00:58:51.234Z,731.01
2015-11-11T00:59:04.518Z,731.04
2015-11-11T00:59:17.784Z,731.03
2015-11-11T00:59:31.065Z,731.03
2015-11-11T00:59:44.331Z,730.31
2015-11-11T00:59:57.597Z,730.91
2015-11-11T01:00:10.880Z,731.17
2015-11-11T01:00:24.177Z,730.86
2015-11-11T01:00:37.474Z,731.02
2015-11-11T01:00:50.802Z,731.07
2015-11-11T01:01:04.133Z,731.02
2015-11-11T01:01:17.398Z,731.17
2015-11-11T01:01:30.664Z,730.98
2015-11-11T01:01:43.930Z,731.1
2015-11-11T01:02:11.541Z,731.05
2015-11-11T01:02:24.838Z,730.81
2015-11-11T01:02:38.088Z,731
2015-11-11T01:02:51.385Z,731.04
2015-11-11T01:03:04.685Z,730.99
2015-11-11T01:03:17.982Z,730.93
2015-11-11T01:03:31.310Z,730.81
2015-11-11T01:03:44.591Z,730.76
2015-11-11T01:03:57.857Z,730.87
2015-11-11T01:04:11.156Z,730.82
2015-11-11T01:04:24.422Z,730.93
2015-11-11T01:04:37.719Z,730.88
2015-11-11T01:04:51.000Z,730.93
2015-11-11T01:05:04.313Z,730.98
2015-11-11T01:05:17.581Z,730.94
2015-11-11T01:05:30.847Z,731.03
2015-11-11T01:05:44.113Z,731.09
2015-11-11T01:05:57.394Z,730.75
2015-11-11T01:06:10.678Z,731.13
2015-11-11T01:06:23.959Z,731.14
2015-11-11T01:06:37.287Z,731
2015-11-11T01:06:50.600Z,730.83
2015-11-11T01:07:03.928Z,730.74
2015-11-11T01:07:17.211Z,730.74
2015-11-11T01:07:30.477Z,730.8
2015-11-11T01:07:43.743Z,730.99
2015-11-11T01:07:57.024Z,731.05
2015-11-11T01:08:10.292Z,730.71
2015-11-11T01:08:23.574Z,730.93
2015-11-11T01:08:36.855Z,730.6
2015-11-11T01:08:50.183Z,730.66
2015-11-11T01:09:03.496Z,731.01
2015-11-11T01:09:16.795Z,730.86
2015-11-11T01:09:30.061Z,730.65
2015-11-11T01:09:43.342Z,730.86
2015-11-11T01:09:56.608Z,730.77
2015-11-11T01:10:09.874Z,730.82
2015-11-11T01:10:23.173Z,730.49
2015-11-11T01:10:36.470Z,730.7
2015-11-11T01:10:49.752Z,730.9
2015-11-11T01:11:03.017Z,731.06
2015-11-11T01:11:16.300Z,731.03
2015-11-11T01:11:29.566Z,730.75
2015-11-11T01:11:42.816Z,730.57
2015-11-11T01:11:56.097Z,730.85
2015-11-11T01:12:09.394Z,731.17
2015-11-11T01:12:22.694Z,730.9
2015-11-11T01:12:35.991Z,730.59
2015-11-11T01:12:49.257Z,730.95
2015-11-11T01:13:02.538Z,730.87
2015-11-11T01:13:15.806Z,731
2015-11-11T01:13:29.072Z,730.82
2015-11-11T01:13:42.353Z,731.04
2015-11-11T01:13:55.619Z,730.91
2015-11-11T01:14:08.916Z,730.76
2015-11-11T01:14:22.199Z,730.98
2015-11-11T01:14:35.512Z,731.06
2015-11-11T01:14:48.933Z,730.92
2015-11-11T01:15:02.199Z,730.81
2015-11-11T01:15:15.468Z,730.96
2015-11-11T01:15:28.733Z,731
2015-11-11T01:15:41.999Z,731.03
2015-11-11T01:15:55.265Z,731.06
2015-11-11T01:16:08.546Z,730.85
2015-11-11T01:16:21.830Z,731.04
2015-11-11T01:16:35.143Z,731.05
2015-11-11T01:16:48.439Z,731.06
2015-11-11T01:17:01.736Z,730.84
2015-11-11T01:17:15.002Z,730.74
2015-11-11T01:17:28.286Z,730.96
2015-11-11T01:17:41.567Z,730.86
2015-11-11T01:17:54.849Z,731.01
2015-11-11T01:18:08.114Z,730.66
2015-11-11T01:18:21.382Z,730.65
2015-11-11T01:18:34.679Z,730.85
2015-11-11T01:18:47.960Z,730.84
2015-11-11T01:19:01.273Z,730.89
2015-11-11T01:19:14.585Z,730.69
2015-11-11T01:19:27.854Z,731.03
2015-11-11T01:19:41.135Z,730.81
2015-11-11T01:19:54.401Z,730.71
2015-11-11T01:20:07.666Z,730.82
2015-11-11T01:20:20.950Z,730.92
2015-11-11T01:20:34.216Z,730.57
2015-11-11T01:20:47.497Z,730.73
2015-11-11T01:21:00.779Z,730.98
2015-11-11T01:21:14.091Z,730.74
2015-11-11T01:21:27.421Z,731.12
2015-11-11T01:21:40.702Z,730.88
2015-11-11T01:21:53.968Z,730.68
2015-11-11T01:22:07.234Z,730.52
2015-11-11T01:22:20.502Z,730.78
2015-11-11T01:22:33.784Z,730.76
2015-11-11T01:23:00.377Z,730.89
2015-11-11T01:23:13.643Z,730.7
2015-11-11T01:23:26.912Z,730.51
2015-11-11T01:23:40.193Z,730.72
2015-11-11T01:23:53.458Z,730.27
2015-11-11T01:24:06.740Z,730.75
2015-11-11T01:24:20.021Z,730.81
2015-11-11T01:24:33.321Z,730.92
2015-11-11T01:24:46.633Z,730.85
2015-11-11T01:24:59.930Z,730.81
2015-11-11T01:25:13.211Z,731.01
2015-11-11T01:25:26.479Z,730.99
2015-11-11T01:25:39.760Z,730.87
2015-11-11T01:25:53.042Z,730.62
2015-11-11T01:26:06.307Z,730.8
2015-11-11T01:26:19.604Z,730.71
2015-11-11T01:26:32.888Z,730.47
2015-11-11T01:26:46.201Z,730.67
2015-11-11T01:26:59.513Z,730.4
2015-11-11T01:27:12.826Z,730.73
2015-11-11T01:27:25.938Z,731.02
2015-11-11T01:27:39.219Z,730.5
2015-11-11T01:27:52.704Z,730.81
2015-11-11T01:28:05.985Z,730.85
2015-11-11T01:28:19.251Z,730.6
2015-11-11T01:28:32.551Z,730.88
2015-11-11T01:28:45.816Z,730.38
2015-11-11T01:28:58.957Z,730.55
2015-11-11T01:29:12.254Z,731.22
2015-11-11T01:29:25.568Z,730.69
2015-11-11T01:29:38.865Z,730.78
2015-11-11T01:29:52.131Z,731
2015-11-11T01:30:05.396Z,730.92
2015-11-11T01:30:18.662Z,730.85
2015-11-11T01:30:31.946Z,730.65
2015-11-11T01:30:45.212Z,730.76
2015-11-11T01:30:58.524Z,730.84
2015-11-11T01:31:11.821Z,730.77
2015-11-11T01:31:25.118Z,730.86
2015-11-11T01:31:38.434Z,730.82
2015-11-11T01:31:51.746Z,730.88
2015-11-11T01:32:05.027Z,730.91
2015-11-11T01:32:18.309Z,730.82
2015-11-11T01:32:31.576Z,730.57
2015-11-11T01:32:44.842Z,730.96
2015-11-11T01:32:58.123Z,730.68
2015-11-11T01:33:11.389Z,730.64
2015-11-11T01:33:24.670Z,730.96
2015-11-11T01:33:37.970Z,730.66
2015-11-11T01:33:51.267Z,730.66
2015-11-11T01:34:04.579Z,730.99
2015-11-11T01:34:17.892Z,730.83
2015-11-11T01:34:31.176Z,730.92
2015-11-11T01:34:44.442Z,730.54
2015-11-11T01:34:57.723Z,730.78
2015-11-11T01:35:10.988Z,730.96
2015-11-11T01:35:24.254Z,730.8
2015-11-11T01:35:37.522Z,730.62
2015-11-11T01:35:50.819Z,730.89
2015-11-11T01:36:04.115Z,730.72
2015-11-11T01:36:17.397Z,730.91
2015-11-11T01:36:30.709Z,730.69
2015-11-11T01:36:44.040Z,730.77
2015-11-11T01:36:57.353Z,730.66
2015-11-11T01:37:10.650Z,730.7
2015-11-11T01:37:23.915Z,730.53
2015-11-11T01:37:37.184Z,730.9
2015-11-11T01:37:50.465Z,730.48
2015-11-11T01:38:03.762Z,730.6
2015-11-11T01:38:17.059Z,730.69
2015-11-11T01:38:30.371Z,730.96
2015-11-11T01:38:43.671Z,730.65
2015-11-11T01:38:56.921Z,730.33
2015-11-11T01:39:10.187Z,730.73
2015-11-11T01:39:23.468Z,730.75
2015-11-11T01:39:36.751Z,730.84
2015-11-11T01:39:50.017Z,730.8
2015-11-11T01:40:03.283Z,730.75
2015-11-11T01:40:16.580Z,730.65
2015-11-11T01:40:29.876Z,730.76
2015-11-11T01:40:43.177Z,730.85
2015-11-11T01:40:56.474Z,730.6
2015-11-11T01:41:09.802Z,730.62
2015-11-11T01:41:22.943Z,730.76
2015-11-11T01:41:36.225Z,730.63
2015-11-11T01:41:49.491Z,730.58
2015-11-11T01:42:02.803Z,730.95
2015-11-11T01:42:16.100Z,730.61
2015-11-11T01:42:29.413Z,730.72
2015-11-11T01:42:42.729Z,730.54
2015-11-11T01:42:56.026Z,730.64
2015-11-11T01:43:09.292Z,730.46
2015-11-11T01:43:22.557Z,730.81
2015-11-11T01:43:35.839Z,730.66
2015-11-11T01:43:49.106Z,730.56
2015-11-11T01:44:02.372Z,730.69
2015-11-11T01:44:15.653Z,730.55
2015-11-11T01:44:28.950Z,730.96
2015-11-11T01:44:42.250Z,730.99
2015-11-11T01:44:55.547Z,730.68
2015-11-11T01:45:08.844Z,730.61
2015-11-11T01:45:22.125Z,730.51
2015-11-11T01:45:35.406Z,730.89
2015-11-11T01:45:48.675Z,730.87
2015-11-11T01:46:01.956Z,730.73
2015-11-11T01:46:15.253Z,730.74
2015-11-11T01:46:28.565Z,730.51
2015-11-11T01:46:41.833Z,730.57
2015-11-11T01:46:55.286Z,730.71
2015-11-11T01:47:08.552Z,730.48
2015-11-11T01:47:21.817Z,730.61
2015-11-11T01:47:35.083Z,730.75
2015-11-11T01:47:48.383Z,730.7
2015-11-11T01:48:01.680Z,730.6
2015-11-11T01:48:14.945Z,730.81
2015-11-11T01:48:28.211Z,730.35
2015-11-11T01:48:41.494Z,730.74
2015-11-11T01:48:54.760Z,730.78
2015-11-11T01:49:08.057Z,730.58
2015-11-11T01:49:21.338Z,730.75
2015-11-11T01:49:34.635Z,730.7
2015-11-11T01:49:47.983Z,730.61
2015-11-11T01:50:01.279Z,730.66
2015-11-11T01:50:14.545Z,730.28
2015-11-11T01:50:27.826Z,730.68
2015-11-11T01:50:41.108Z,730.74
2015-11-11T01:50:54.375Z,730.61
2015-11-11T01:51:07.672Z,730.39
2015-11-11T01:51:20.938Z,730.81
2015-11-11T01:51:34.219Z,730.73
2015-11-11T01:51:47.519Z,730.49
2015-11-11T01:52:00.831Z,730.67
2015-11-11T01:52:14.144Z,730.37
2015-11-11T01:52:27.441Z,730.68
2015-11-11T01:52:40.706Z,730.7
2015-11-11T01:52:53.975Z,730.73
2015-11-11T01:53:07.241Z,730.47
2015-11-11T01:53:20.537Z,730.68
2015-11-11T01:53:33.787Z,730.54
2015-11-11T01:53:47.072Z,730.16
2015-11-11T01:54:00.431Z,730.66
2015-11-11T01:54:13.744Z,730.74
2015-11-11T01:54:27.072Z,730.56
2015-11-11T01:54:40.400Z,730.62
2015-11-11T01:54:53.667Z,730.63
2015-11-11T01:55:06.933Z,730.53
2015-11-11T01:55:20.214Z,730.69
2015-11-11T01:55:33.480Z,730.71
2015-11-11T01:55:46.749Z,730.65
2015-11-11T01:56:00.045Z,730.71
2015-11-11T01:56:13.327Z,730.8
2015-11-11T01:56:26.624Z,730.42
2015-11-11T01:56:39.952Z,730.88
2015-11-11T01:56:53.220Z,730.73
2015-11-11T01:57:06.502Z,729.85
2015-11-11T01:57:19.611Z,730.27
2015-11-11T01:57:32.877Z,730.57
2015-11-11T01:57:46.142Z,730.49
2015-11-11T01:57:59.286Z,730.56
2015-11-11T01:58:12.615Z,730.63
2015-11-11T01:58:25.931Z,730.43
2015-11-11T01:58:53.043Z,730.87
2015-11-11T01:59:06.263Z,730.25
2015-11-11T01:59:19.545Z,730.51
2015-11-11T01:59:32.826Z,730.44
2015-11-11T01:59:46.091Z,730.26
2015-11-11T01:59:59.610Z,730.39
2015-11-11T02:00:12.891Z,730.49
2015-11-11T02:00:26.188Z,730.47
2015-11-11T02:00:39.735Z,730.48
2015-11-11T02:00:53.066Z,730.53
2015-11-11T02:01:06.363Z,730.52
2015-11-11T02:01:19.629Z,730.45
2015-11-11T02:01:32.894Z,730.42
2015-11-11T02:01:46.176Z,730.4
2015-11-11T02:01:59.444Z,730.56
2015-11-11T02:02:12.710Z,730.58
2015-11-11T02:02:25.835Z,730.62
2015-11-11T02:02:39.132Z,730.58
2015-11-11T02:02:52.431Z,730.69
2015-11-11T02:03:05.727Z,730.65
2015-11-11T02:03:19.024Z,730.16
2015-11-11T02:03:32.290Z,730.41
2015-11-11T02:03:45.556Z,730.59
2015-11-11T02:03:58.840Z,730.68
2015-11-11T02:04:12.105Z,730.25
2015-11-11T02:04:25.371Z,730.6
2015-11-11T02:04:38.652Z,730.52
2015-11-11T02:04:51.934Z,730.53
2015-11-11T02:05:05.249Z,730.41
2015-11-11T02:05:18.562Z,730.39
2015-11-11T02:05:31.890Z,730.62
2015-11-11T02:05:45.187Z,730.48
2015-11-11T02:05:58.470Z,730.5
2015-11-11T02:06:11.751Z,730.34
2015-11-11T02:06:25.022Z,730.51
2015-11-11T02:06:38.303Z,730.38
2015-11-11T02:06:51.568Z,730.39
2015-11-11T02:07:04.838Z,730.45
2015-11-11T02:07:18.135Z,730.61
2015-11-11T02:07:31.432Z,730.65
2015-11-11T02:07:44.588Z,730.52
2015-11-11T02:07:57.856Z,730.56
2015-11-11T02:08:11.121Z,730.36
2015-11-11T02:08:24.387Z,730.34
2015-11-11T02:08:37.668Z,730.72
2015-11-11T02:08:50.918Z,730.47
2015-11-11T02:09:04.218Z,730.59
2015-11-11T02:09:17.484Z,730.52
2015-11-11T02:09:30.765Z,730.53
2015-11-11T02:09:44.062Z,730.46
2015-11-11T02:09:57.374Z,730.64
2015-11-11T02:10:10.705Z,730.56
2015-11-11T02:10:24.065Z,730.43
2015-11-11T02:10:37.330Z,730.41
2015-11-11T02:10:50.612Z,730.65
2015-11-11T02:11:03.879Z,730.43
2015-11-11T02:11:17.161Z,730.75
2015-11-11T02:11:30.442Z,730.5
2015-11-11T02:11:43.582Z,730.59
2015-11-11T02:11:56.895Z,730.41
2015-11-11T02:12:10.179Z,730.43
2015-11-11T02:12:23.460Z,730.76
2015-11-11T02:12:36.726Z,730.73
2015-11-11T02:12:49.992Z,730.42
2015-11-11T02:13:03.276Z,730.68
2015-11-11T02:13:16.542Z,730.52
2015-11-11T02:13:29.901Z,730.47
2015-11-11T02:13:43.182Z,730.55
2015-11-11T02:13:56.463Z,730.4
2015-11-11T02:14:09.779Z,730.4
2015-11-11T02:14:23.091Z,730.89
2015-11-11T02:14:36.404Z,730.37
2015-11-11T02:14:49.670Z,730.43
2015-11-11T02:15:02.935Z,730.62
2015-11-11T02:15:16.204Z,730.56
2015-11-11T02:15:29.470Z,730.86
2015-11-11T02:15:42.736Z,730.57
2015-11-11T02:15:56.017Z,730.36
2015-11-11T02:16:09.264Z,730.46
2015-11-11T02:16:22.560Z,730.3
2015-11-11T02:16:35.873Z,730.47
2015-11-11T02:16:49.201Z,730.39
2015-11-11T02:17:02.451Z,730.41
2015-11-11T02:17:15.713Z,730.5
2015-11-11T02:17:28.979Z,730.33
2015-11-11T02:17:42.260Z,730.53
2015-11-11T02:17:55.370Z,730.12
2015-11-11T02:18:08.647Z,730.58
2015-11-11T02:18:21.929Z,730.27
2015-11-11T02:18:35.210Z,730.64
2015-11-11T02:18:48.522Z,730.38
2015-11-11T02:19:01.819Z,730.57
2015-11-11T02:19:15.348Z,730.7
2015-11-11T02:19:28.661Z,730.6
2015-11-11T02:19:41.926Z,730.76
2015-11-11T02:19:55.192Z,730.24
2015-11-11T02:20:08.458Z,730.58
2015-11-11T02:20:21.574Z,730.15
2015-11-11T02:20:35.042Z,730.72
2015-11-11T02:20:48.324Z,730.53
2015-11-11T02:21:01.620Z,730.41
2015-11-11T02:21:14.881Z,730.09
2015-11-11T02:21:28.178Z,730.24
2015-11-11T02:21:41.475Z,730.35
2015-11-11T02:21:54.959Z,730.36
2015-11-11T02:22:08.225Z,730.41
2015-11-11T02:22:21.501Z,730.31
2015-11-11T02:22:34.767Z,730.21
2015-11-11T02:22:48.032Z,730.6
2015-11-11T02:23:01.314Z,730.67
2015-11-11T02:23:14.590Z,730.64
2015-11-11T02:23:27.871Z,730.22
2015-11-11T02:23:41.184Z,730.51
2015-11-11T02:23:54.480Z,730.61
2015-11-11T02:24:07.793Z,730.5
2015-11-11T02:24:21.101Z,730.46
2015-11-11T02:24:34.383Z,730.31
2015-11-11T02:24:47.664Z,730.36
2015-11-11T02:25:00.914Z,730.54
2015-11-11T02:25:14.209Z,730.71
2015-11-11T02:25:27.474Z,730.7
2015-11-11T02:25:40.740Z,730.58
2015-11-11T02:25:54.037Z,730.61
2015-11-11T02:26:07.318Z,730.4
2015-11-11T02:26:20.631Z,730.23
2015-11-11T02:26:33.959Z,730.64
2015-11-11T02:26:47.240Z,730.52
2015-11-11T02:27:00.349Z,730.43
2015-11-11T02:27:13.631Z,730.46
2015-11-11T02:27:26.896Z,730.48
2015-11-11T02:27:40.193Z,730.37
2015-11-11T02:27:53.303Z,730.19
2015-11-11T02:28:06.584Z,730.4
2015-11-11T02:28:19.881Z,730.58
2015-11-11T02:28:33.193Z,730.15
2015-11-11T02:28:46.506Z,730.47
2015-11-11T02:28:59.818Z,730.32
2015-11-11T02:29:13.084Z,730.36
2015-11-11T02:29:26.349Z,730.56
2015-11-11T02:29:39.631Z,730.12
2015-11-11T02:29:52.912Z,730.44
2015-11-11T02:30:06.209Z,730.29
2015-11-11T02:30:19.476Z,730.36
2015-11-11T02:30:32.773Z,730.68
2015-11-11T02:30:46.055Z,730.26
2015-11-11T02:30:59.351Z,730.21
2015-11-11T02:31:12.664Z,730.52
2015-11-11T02:31:26.228Z,730.52
2015-11-11T02:31:39.494Z,730.57
2015-11-11T02:31:52.760Z,730.22
2015-11-11T02:32:06.025Z,730.51
2015-11-11T02:32:19.183Z,730.24
2015-11-11T02:32:32.448Z,730.5
2015-11-11T02:32:45.745Z,730.64
2015-11-11T02:32:59.026Z,730.32
2015-11-11T02:33:12.323Z,730.46
2015-11-11T02:33:25.606Z,730.47
2015-11-11T02:33:38.872Z,730.7
2015-11-11T02:33:52.153Z,730.34
2015-11-11T02:34:05.419Z,730.66
2015-11-11T02:34:18.700Z,730.42
2015-11-11T02:34:31.999Z,730.23
2015-11-11T02:34:45.296Z,730.37
2015-11-11T02:34:58.577Z,730.35
2015-11-11T02:35:11.858Z,730.62
2015-11-11T02:35:25.143Z,730.12
2015-11-11T02:35:38.408Z,730.34
2015-11-11T02:35:51.690Z,730.43
2015-11-11T02:36:04.971Z,730.7
2015-11-11T02:36:18.283Z,730.12
2015-11-11T02:36:31.599Z,730.3
2015-11-11T02:36:44.896Z,730.42
2015-11-11T02:36:58.193Z,730.22
2015-11-11T02:37:11.458Z,730.5
2015-11-11T02:37:24.726Z,730.3
2015-11-11T02:37:37.991Z,730.32
2015-11-11T02:37:51.257Z,730.22
2015-11-11T02:38:04.523Z,730.56
2015-11-11T02:38:17.804Z,730.46
2015-11-11T02:38:31.087Z,730.17
2015-11-11T02:38:44.384Z,730.65
2015-11-11T02:38:57.712Z,730.07
2015-11-11T02:39:10.993Z,730.42
2015-11-11T02:39:24.275Z,730.19
2015-11-11T02:39:37.542Z,730.48
2015-11-11T02:39:50.792Z,730.32
2015-11-11T02:40:04.074Z,730.48
2015-11-11T02:40:17.324Z,730.29
2015-11-11T02:40:30.622Z,730.45
2015-11-11T02:40:43.904Z,730.23
2015-11-11T02:40:57.201Z,730.3
2015-11-11T02:41:10.529Z,730.33
2015-11-11T02:41:23.794Z,730.41
2015-11-11T02:41:37.063Z,730.28
2015-11-11T02:41:50.375Z,730.24
2015-11-11T02:42:03.657Z,730.33
2015-11-11T02:42:16.938Z,730.26
2015-11-11T02:42:30.207Z,730.26
2015-11-11T02:42:43.503Z,730.3
2015-11-11T02:42:56.800Z,730.22
2015-11-11T02:43:10.082Z,730.26
2015-11-11T02:43:23.394Z,730.64
2015-11-11T02:43:36.710Z,730.49
2015-11-11T02:43:49.975Z,730.46
2015-11-11T02:44:03.256Z,730.21
2015-11-11T02:44:16.538Z,730.52
2015-11-11T02:44:29.822Z,730.33
2015-11-11T02:44:42.947Z,730.16
2015-11-11T02:44:56.228Z,730.18
2015-11-11T02:45:09.541Z,730.3
2015-11-11T02:45:22.869Z,730.26
2015-11-11T02:45:36.183Z,730.35
2015-11-11T02:45:49.465Z,730.39
2015-11-11T02:46:02.808Z,730.13
2015-11-11T02:46:16.074Z,730.44
2015-11-11T02:46:29.355Z,730.55
2015-11-11T02:46:42.639Z,730.35
2015-11-11T02:46:55.889Z,730.19
2015-11-11T02:47:09.171Z,730.15
2015-11-11T02:47:22.468Z,730.1